TNCC

Hato International Airport

Willemstad, Curaçao
TAF TNCC 210330Z 2106/2206 11010KT 9999 SCT018 PROB30 TEMPO 2106/2116 BKN015
Issued Valid From Valid To
Apr-21 @ 03:30 UTC
(6 hours ago)
Apr-21 @ 06:00 UTC
(4 hours ago)
Apr-22 @ 06:00 UTC
(in 20 hours)
Apr-21 @ 06:00 to Apr-22 @ 06:00
TAF TNCC 210330Z 2106/2206 11010KT 9999 SCT018
Wind Visibility Clouds
110° at 10 knots 10,000+ meters
  • Scattered at 1,800' AGL
Temporary  (Probability 30%) Apr-21 @ 06:00 to Apr-21 @ 16:00
PROB30 TEMPO 2106/2116 BKN015
Clouds
  • Broken at 1,500' AGL
TAF TNCC 210330Z 2106/2206 11010KT 9999 SCT018 PROB30 TEMPO 2106/2116 BKN015
Issued Apr-21 @ 03:30 UTC
(6 hours ago)
Valid From Apr-21 @ 06:00 UTC
(4 hours ago)
Valid To Apr-22 @ 06:00 UTC
(in 20 hours)
Apr-21 @ 06:00 - Apr-22 @ 06:00
Wind Visibility
110° at 10 knots 10,000+ meters
Clouds
  • Scattered at 1,800' AGL
Probability 30% Temporary Apr-21 @ 06:00 - Apr-21 @ 16:00
Clouds
  • Broken at 1,500' AGL